Time;durP1;ratioP1;P1;durP2;ratioP2;P2;SDS_P1;SDS_P2;PMS_P1;PMS_P2;Temp;Humidity;BMP_temperature;BMP_pressure;BME280_temperature;BME280_humidity;BME280_pressure;Samples;Min_cycle;Max_cycle;Signal;HPM_P1;HPM_P2
2021/04/03 00:00:07;;;;;;;120.17;35.30;;;16.40;55.00;;;;;;4147833;28;20026;-57
2021/04/03 00:02:08;;;;;;;108.70;32.37;;;16.40;55.10;;;;;;4147950;28;20026;-57
2021/04/03 00:04:09;;;;;;;108.03;32.90;;;16.40;55.00;;;;;;4163907;28;20142;-57
2021/04/03 00:06:09;;;;;;;103.53;31.50;;;16.30;55.00;;;;;;4151006;28;20117;-56
2021/04/03 00:08:15;;;;;;;102.90;30.03;;;16.40;55.00;;;;;;4150845;28;20029;-56
2021/04/03 00:10:44;;;;;;;108.23;32.97;;;16.40;55.00;;;;;;4150665;28;20026;-56
2021/04/03 00:12:45;;;;;;;98.63;29.27;;;16.30;55.00;;;;;;4149528;28;20030;-57
2021/04/03 00:14:47;;;;;;;86.80;27.70;;;16.30;55.00;;;;;;4150665;28;20037;-57
2021/04/03 00:16:48;;;;;;;102.53;28.17;;;16.30;55.00;;;;;;4150506;28;20034;-57
2021/04/03 00:18:48;;;;;;;88.60;27.67;;;16.30;55.00;;;;;;4150357;28;20091;-57
2021/04/03 00:20:50;;;;;;;92.20;27.50;;;16.30;55.00;;;;;;4165759;28;20033;-56
2021/04/03 00:22:51;;;;;;;97.37;29.33;;;16.30;54.90;;;;;;4150602;28;20026;-57
2021/04/03 00:24:52;;;;;;;85.60;27.53;;;16.30;55.00;;;;;;4150579;28;20022;-57
2021/04/03 00:26:52;;;;;;;85.60;27.17;;;16.30;55.00;;;;;;4149252;28;20507;-57
2021/04/03 00:28:53;;;;;;;91.80;27.93;;;16.30;55.00;;;;;;4150291;28;20033;-57
2021/04/03 00:30:54;;;;;;;87.97;26.33;;;16.30;55.00;;;;;;4150320;28;20022;-57
2021/04/03 00:33:00;;;;;;;90.13;27.00;;;16.20;54.90;;;;;;4150632;28;20026;-57
2021/04/03 00:35:00;;;;;;;87.37;25.47;;;16.20;54.90;;;;;;4150563;28;20104;-57
2021/04/03 00:37:01;;;;;;;72.07;25.50;;;16.20;54.90;;;;;;4149196;28;20041;-57
2021/04/03 00:39:02;;;;;;;83.57;25.67;;;16.20;54.90;;;;;;4149296;28;20121;-57
2021/04/03 00:41:03;;;;;;;72.83;25.13;;;16.20;54.90;;;;;;4149022;28;20030;-57
2021/04/03 00:43:13;;;;;;;80.93;25.23;;;16.20;54.90;;;;;;4150208;28;20497;-57
2021/04/03 00:45:15;;;;;;;80.07;25.10;;;16.20;54.90;;;;;;4150292;28;20030;-57
2021/04/03 00:47:16;;;;;;;79.47;24.57;;;16.20;54.90;;;;;;4165395;28;20030;-57
2021/04/03 00:49:17;;;;;;;79.70;23.97;;;16.20;54.90;;;;;;4149054;28;20548;-57
2021/04/03 00:51:18;;;;;;;77.97;24.40;;;16.20;54.90;;;;;;4150153;28;20076;-57
2021/04/03 00:53:22;;;;;;;61.73;21.93;;;16.20;54.90;;;;;;4151462;28;20030;-58
2021/04/03 00:55:30;;;;;;;77.07;22.53;;;16.20;54.90;;;;;;4148985;28;20041;-57
2021/04/03 00:57:31;;;;;;;72.13;23.40;;;16.20;54.90;;;;;;4149940;28;20054;-57
2021/04/03 00:59:32;;;;;;;72.37;23.20;;;16.20;54.80;;;;;;4165122;28;20414;-57
2021/04/03 01:01:34;;;;;;;66.43;21.40;;;16.10;54.80;;;;;;4165037;28;20033;-57
2021/04/03 01:03:36;;;;;;;62.33;21.83;;;16.10;54.80;;;;;;4149938;28;20018;-57
2021/04/03 01:05:38;;;;;;;69.27;21.13;;;16.10;54.90;;;;;;4148821;28;20121;-57
2021/04/03 01:07:39;;;;;;;62.27;21.23;;;16.10;54.80;;;;;;4149899;28;20019;-57
2021/04/03 01:09:41;;;;;;;66.23;20.77;;;16.10;54.80;;;;;;4165009;28;20040;-56
2021/04/03 01:12:11;;;;;;;65.50;20.70;;;16.10;54.80;;;;;;4164648;28;20043;-57
2021/04/03 01:14:30;;;;;;;55.90;18.30;;;16.10;54.80;;;;;;4148744;28;20584;-57
2021/04/03 01:16:47;;;;;;;63.07;20.27;;;16.10;54.80;;;;;;4149738;28;20530;-57
2021/04/03 01:19:20;;;;;;;52.73;18.57;;;16.10;54.80;;;;;;4164960;28;20034;-56
2021/04/03 01:21:29;;;;;;;67.67;19.73;;;16.00;54.80;;;;;;4164959;28;20035;-57
2021/04/03 01:23:57;;;;;;;57.77;19.10;;;16.10;54.80;;;;;;4148534;28;20121;-57
2021/04/03 01:26:16;;;;;;;59.80;19.43;;;16.10;54.80;;;;;;4148339;28;20487;-57
2021/04/03 01:28:42;;;;;;;47.63;18.40;;;16.00;54.80;;;;;;4149703;28;20036;-57
2021/04/03 01:30:47;;;;;;;52.43;17.30;;;16.10;54.80;;;;;;4148331;28;20113;-57
2021/04/03 01:33:06;;;;;;;52.28;16.35;;;16.00;54.80;;;;;;4149483;28;20030;-57
2021/04/03 01:35:14;;;;;;;47.57;16.57;;;16.00;54.80;;;;;;4148340;28;20060;-57
2021/04/03 01:37:21;;;;;;;51.07;18.07;;;16.00;54.80;;;;;;4149495;28;20034;-56
2021/04/03 01:39:23;;;;;;;51.87;17.27;;;16.00;54.90;;;;;;4149484;28;20037;-57
2021/04/03 01:41:27;;;;;;;49.53;16.13;;;16.00;54.80;;;;;;4164518;28;20064;-57
2021/04/03 01:43:35;;;;;;;49.53;17.30;;;16.00;54.80;;;;;;4148206;28;20029;-57
2021/04/03 01:45:40;;;;;;;54.00;17.63;;;16.00;54.80;;;;;;4164564;28;20457;-57
2021/04/03 01:47:42;;;;;;;48.60;16.13;;;16.00;54.80;;;;;;4149206;28;20022;-56
2021/04/03 01:49:43;;;;;;;49.63;17.83;;;16.00;54.80;;;;;;4164157;28;20033;-57
2021/04/03 01:51:48;;;;;;;50.72;16.15;;;16.00;54.80;;;;;;4149325;28;20022;-57
2021/04/03 01:53:54;;;;;;;50.33;15.67;;;15.90;54.80;;;;;;4148078;28;20034;-57
2021/04/03 01:55:56;;;;;;;47.03;15.07;;;15.90;54.80;;;;;;4147909;28;20502;-57
2021/04/03 01:58:01;;;;;;;51.70;16.20;;;15.90;54.80;;;;;;4146273;28;20045;-55
2021/04/03 02:00:09;;;;;;;50.77;15.47;;;15.90;54.80;;;;;;4158129;28;20029;-55
2021/04/03 02:02:19;;;;;;;44.27;14.23;;;15.90;54.80;;;;;;4163323;28;20048;-57
2021/04/03 02:04:22;;;;;;;51.03;15.67;;;15.90;54.80;;;;;;4164283;28;20036;-57
2021/04/03 02:06:24;;;;;;;50.63;14.57;;;15.90;54.80;;;;;;4165258;28;20048;-57
2021/04/03 02:08:58;;;;;;;38.70;13.47;;;15.90;54.80;;;;;;4164007;28;20119;-57
2021/04/03 02:11:18;;;;;;;44.33;14.37;;;15.90;54.80;;;;;;4165629;28;20397;-56
2021/04/03 02:13:22;;;;;;;38.08;13.85;;;15.90;54.80;;;;;;4164055;28;20021;-56
2021/04/03 02:15:28;;;;;;;45.63;14.17;;;15.90;54.80;;;;;;4164137;28;20037;-57
2021/04/03 02:17:34;;;;;;;40.17;13.30;;;15.90;54.80;;;;;;4165113;28;20125;-57
2021/04/03 02:19:37;;;;;;;38.57;13.20;;;15.90;54.90;;;;;;4163921;28;20052;-57
2021/04/03 02:21:40;;;;;;;38.47;12.87;;;15.90;54.90;;;;;;4163770;28;20051;-57
2021/04/03 02:23:42;;;;;;;37.63;13.33;;;15.90;54.80;;;;;;4180464;28;20033;-55
2021/04/03 02:25:44;;;;;;;34.67;12.90;;;15.80;54.70;;;;;;4163874;28;20477;-57
2021/04/03 02:27:51;;;;;;;35.73;11.77;;;15.80;54.70;;;;;;4164779;28;20028;-57
2021/04/03 02:29:52;;;;;;;32.13;12.13;;;15.80;54.70;;;;;;4163810;28;20061;-57
2021/04/03 02:31:53;;;;;;;35.40;12.63;;;15.80;54.70;;;;;;4165034;28;20096;-57
2021/04/03 02:33:54;;;;;;;36.23;12.27;;;15.80;54.80;;;;;;4163706;28;20505;-57
2021/04/03 02:35:56;;;;;;;29.80;12.20;;;15.80;54.80;;;;;;4163808;28;20025;-57
2021/04/03 02:37:59;;;;;;;32.17;12.43;;;15.80;54.80;;;;;;4163382;28;20407;-57
2021/04/03 02:40:05;;;;;;;33.88;11.35;;;15.80;54.80;;;;;;4163690;28;20025;-57
2021/04/03 02:42:16;;;;;;;36.57;12.03;;;15.80;54.90;;;;;;4163593;28;20034;-57
2021/04/03 02:44:29;;;;;;;33.10;11.27;;;15.80;54.80;;;;;;4163648;28;20052;-57
2021/04/03 02:46:39;;;;;;;33.47;11.47;;;15.80;54.80;;;;;;4164772;28;20048;-57
2021/04/03 02:48:48;;;;;;;31.93;11.67;;;15.70;54.70;;;;;;4163663;28;20118;-57
2021/04/03 02:50:53;;;;;;;34.73;11.87;;;15.80;54.80;;;;;;4163718;28;20118;-57
2021/04/03 02:52:57;;;;;;;32.40;11.73;;;15.80;54.90;;;;;;4163632;28;20035;-57
2021/04/03 02:55:00;;;;;;;29.83;10.60;;;15.80;54.90;;;;;;4163412;28;20468;-57
2021/04/03 02:57:06;;;;;;;31.07;11.30;;;15.70;54.80;;;;;;4179734;28;20127;-57
2021/04/03 02:59:20;;;;;;;34.20;10.97;;;15.80;54.80;;;;;;4163506;28;20037;-57
2021/04/03 03:01:24;;;;;;;30.73;10.43;;;15.80;54.80;;;;;;4163493;28;20478;-57
2021/04/03 03:03:34;;;;;;;31.77;10.73;;;15.80;54.90;;;;;;4164636;28;20466;-57
2021/04/03 03:05:36;;;;;;;31.03;10.67;;;15.70;54.70;;;;;;4163556;28;20405;-57
2021/04/03 03:07:42;;;;;;;31.23;10.07;;;15.70;54.80;;;;;;4163303;28;20025;-57
2021/04/03 03:09:49;;;;;;;31.40;9.90;;;15.70;54.80;;;;;;4179926;28;20496;-57
2021/04/03 03:11:55;;;;;;;34.23;10.57;;;15.70;54.80;;;;;;4179798;28;20037;-57
2021/04/03 03:13:58;;;;;;;27.67;9.17;;;15.70;54.80;;;;;;4179982;28;20078;-56
2021/04/03 03:16:05;;;;;;;26.87;8.97;;;15.70;54.90;;;;;;4164616;28;20030;-57
2021/04/03 03:18:09;;;;;;;25.00;9.20;;;15.70;54.90;;;;;;4163451;28;20041;-57
2021/04/03 03:20:14;;;;;;;26.05;9.25;;;15.70;55.00;;;;;;4179564;28;20021;-57
2021/04/03 03:22:15;;;;;;;28.97;9.90;;;15.70;55.10;;;;;;4163201;28;20032;-57
2021/04/03 03:24:17;;;;;;;29.87;9.80;;;15.70;55.00;;;;;;4179900;28;20381;-57
2021/04/03 03:26:18;;;;;;;28.23;9.63;;;15.70;55.00;;;;;;4163653;28;20068;-57
2021/04/03 03:28:20;;;;;;;23.80;9.13;;;15.60;55.00;;;;;;4163275;28;20026;-57
2021/04/03 03:30:23;;;;;;;28.70;9.97;;;15.60;55.00;;;;;;4163304;28;20156;-57
2021/04/03 03:32:27;;;;;;;26.67;9.00;;;15.60;55.00;;;;;;4164448;28;20073;-56
2021/04/03 03:34:35;;;;;;;23.03;9.53;;;15.60;54.80;;;;;;4163345;28;20112;-55
2021/04/03 03:36:38;;;;;;;27.67;9.80;;;15.60;54.90;;;;;;4164485;28;20036;-57
2021/04/03 03:38:41;;;;;;;21.97;9.13;;;15.60;55.00;;;;;;4163316;28;20091;-57
2021/04/03 03:40:46;;;;;;;25.30;9.47;;;15.60;54.90;;;;;;4166302;28;20112;-57
2021/04/03 03:42:50;;;;;;;24.90;8.77;;;15.60;55.00;;;;;;4182916;28;20061;-57
2021/04/03 03:44:56;;;;;;;25.87;8.67;;;15.60;55.00;;;;;;4166494;28;20040;-57
2021/04/03 03:46:58;;;;;;;18.37;8.43;;;15.60;55.00;;;;;;4182824;28;20061;-57
2021/04/03 03:49:01;;;;;;;23.27;7.60;;;15.60;55.00;;;;;;4167626;28;20029;-57
2021/04/03 03:51:03;;;;;;;21.07;8.00;;;15.60;55.10;;;;;;4182645;28;20029;-57
2021/04/03 03:53:12;;;;;;;20.27;8.13;;;15.60;55.10;;;;;;4166282;28;20111;-57
2021/04/03 03:55:14;;;;;;;19.43;8.47;;;15.60;55.00;;;;;;4167512;28;20033;-57
2021/04/03 03:57:16;;;;;;;23.27;8.63;;;15.60;55.20;;;;;;4167195;28;20037;-57
2021/04/03 03:59:19;;;;;;;20.40;7.97;;;15.60;55.20;;;;;;4167471;28;20037;-57
2021/04/03 04:01:21;;;;;;;22.17;8.83;;;15.60;55.20;;;;;;4182402;28;20033;-57
2021/04/03 04:03:23;;;;;;;20.87;7.60;;;15.50;55.20;;;;;;4166140;28;20076;-57
2021/04/03 04:05:28;;;;;;;20.73;7.13;;;15.50;55.20;;;;;;4166107;28;20041;-57
2021/04/03 04:07:34;;;;;;;20.90;7.00;;;15.50;55.20;;;;;;4165881;28;20079;-57
2021/04/03 04:09:36;;;;;;;20.13;7.60;;;15.50;55.20;;;;;;4182511;28;20058;-56
2021/04/03 04:11:38;;;;;;;21.07;8.63;;;15.50;55.20;;;;;;4182456;28;20112;-57
2021/04/03 04:13:48;;;;;;;20.57;7.53;;;15.50;55.20;;;;;;4165846;28;20486;-57
2021/04/03 04:15:55;;;;;;;20.13;7.67;;;15.50;55.20;;;;;;4150315;28;20117;-57
2021/04/03 04:17:57;;;;;;;19.57;7.10;;;15.50;55.20;;;;;;4165853;28;20441;-57
2021/04/03 04:19:58;;;;;;;20.93;7.30;;;15.50;55.20;;;;;;4165750;28;20029;-57
2021/04/03 04:22:01;;;;;;;17.17;6.97;;;15.50;55.30;;;;;;4167089;28;20080;-57
2021/04/03 04:24:03;;;;;;;23.77;8.93;;;15.50;55.80;;;;;;4167010;28;20080;-57
2021/04/03 04:26:06;;;;;;;20.63;7.20;;;15.50;55.30;;;;;;4165737;28;20037;-58
2021/04/03 04:28:08;;;;;;;18.27;7.00;;;15.50;55.30;;;;;;4165782;28;20037;-57
2021/04/03 04:30:09;;;;;;;15.23;6.63;;;15.40;55.30;;;;;;4165906;28;20036;-57
2021/04/03 04:32:14;;;;;;;15.45;5.95;;;15.40;55.30;;;;;;4165779;28;20042;-57
2021/04/03 04:34:17;;;;;;;20.80;6.83;;;15.40;55.30;;;;;;4166938;28;20033;-57
2021/04/03 04:36:22;;;;;;;18.83;6.43;;;15.40;55.30;;;;;;4165495;28;20021;-57
2021/04/03 04:38:24;;;;;;;14.53;6.33;;;15.40;55.30;;;;;;4165621;28;20026;-57
2021/04/03 04:40:26;;;;;;;15.57;6.77;;;15.40;55.40;;;;;;4165444;28;20036;-57
2021/04/03 04:42:27;;;;;;;18.97;6.27;;;15.40;55.40;;;;;;4165545;28;20116;-57
2021/04/03 04:44:33;;;;;;;17.87;6.97;;;15.40;55.40;;;;;;4165395;28;20052;-57
2021/04/03 04:46:34;;;;;;;18.13;7.07;;;15.40;55.40;;;;;;4165436;28;20021;-57
2021/04/03 04:48:36;;;;;;;16.07;6.50;;;15.40;55.40;;;;;;4182020;28;20111;-56
2021/04/03 04:50:44;;;;;;;16.27;6.17;;;15.40;55.40;;;;;;4165067;28;20034;-57
2021/04/03 04:52:47;;;;;;;16.30;6.43;;;15.40;55.40;;;;;;4166454;28;20036;-57
2021/04/03 04:54:49;;;;;;;19.10;6.80;;;15.40;55.40;;;;;;4165401;28;20105;-57
2021/04/03 04:56:52;;;;;;;15.17;5.90;;;15.40;55.40;;;;;;4165185;28;20068;-57
2021/04/03 04:59:01;;;;;;;16.27;6.50;;;15.40;55.50;;;;;;4165265;28;20091;-57
2021/04/03 05:01:06;;;;;;;15.02;5.88;;;15.40;55.50;;;;;;4165164;28;20128;-57
2021/04/03 05:03:21;;;;;;;18.47;6.33;;;15.40;55.50;;;;;;4165208;28;20088;-57
2021/04/03 05:05:21;;;;;;;16.20;6.57;;;15.40;55.50;;;;;;4166413;28;20497;-56
2021/04/03 05:07:22;;;;;;;14.33;6.00;;;15.40;55.50;;;;;;4166291;28;20021;-57
2021/04/03 05:09:23;;;;;;;15.13;5.90;;;15.30;55.40;;;;;;4166327;28;20104;-57
2021/04/03 05:11:24;;;;;;;15.33;5.53;;;15.40;55.60;;;;;;4165153;28;20025;-57
2021/04/03 05:13:24;;;;;;;14.47;5.23;;;15.30;55.50;;;;;;4166369;28;20033;-57
2021/04/03 05:15:25;;;;;;;17.87;5.60;;;15.30;55.50;;;;;;4164875;28;20029;-57
2021/04/03 05:17:26;;;;;;;17.87;6.10;;;15.30;55.50;;;;;;4165025;28;20109;-57
2021/04/03 05:19:27;;;;;;;15.33;5.80;;;15.40;55.60;;;;;;4166179;28;20029;-57
2021/04/03 05:21:28;;;;;;;19.57;6.97;;;15.30;55.50;;;;;;4166060;28;20026;-56
2021/04/03 05:23:30;;;;;;;15.77;5.37;;;15.30;55.50;;;;;;4166159;28;20032;-57
2021/04/03 05:25:31;;;;;;;18.97;6.20;;;15.30;55.50;;;;;;4164691;28;20029;-57
2021/04/03 05:27:31;;;;;;;15.70;5.77;;;15.30;55.50;;;;;;4166044;28;20147;-57
2021/04/03 05:29:32;;;;;;;13.80;5.43;;;15.30;55.60;;;;;;4166020;28;20025;-57
2021/04/03 05:31:33;;;;;;;15.07;6.07;;;15.30;55.60;;;;;;4166060;28;20390;-56
2021/04/03 05:33:34;;;;;;;17.43;5.80;;;15.30;55.60;;;;;;4181242;28;20048;-57
2021/04/03 05:35:34;;;;;;;12.60;5.40;;;15.30;55.60;;;;;;4166013;28;20021;-57
2021/04/03 05:37:35;;;;;;;14.17;5.63;;;15.30;55.60;;;;;;4165758;28;20116;-57
2021/04/03 05:39:36;;;;;;;12.07;5.13;;;15.30;55.60;;;;;;4165887;28;20454;-57
2021/04/03 05:41:37;;;;;;;15.47;5.80;;;15.30;55.60;;;;;;4164473;28;20037;-57
2021/04/03 05:43:39;;;;;;;13.13;5.83;;;15.30;55.60;;;;;;4165710;28;20027;-57
2021/04/03 05:45:42;;;;;;;10.83;5.57;;;15.30;55.60;;;;;;4165762;28;20032;-57
2021/04/03 05:47:43;;;;;;;11.70;4.90;;;15.30;55.60;;;;;;4165651;28;20025;-57
2021/04/03 05:49:45;;;;;;;13.27;5.07;;;15.30;55.70;;;;;;4164414;28;20095;-57
2021/04/03 05:51:47;;;;;;;10.37;5.33;;;15.30;55.70;;;;;;4165689;28;20072;-57
2021/04/03 05:53:48;;;;;;;12.23;5.53;;;15.20;55.60;;;;;;4165769;28;20389;-56
2021/04/03 05:55:57;;;;;;;14.67;5.60;;;15.20;55.60;;;;;;4165664;28;20381;-56
2021/04/03 05:57:58;;;;;;;14.43;4.73;;;15.20;55.60;;;;;;4165248;28;20402;-57
2021/04/03 05:59:59;;;;;;;11.67;5.00;;;15.20;55.60;;;;;;4165316;28;20116;-57
2021/04/03 06:02:00;;;;;;;15.23;5.10;;;15.20;55.60;;;;;;4164872;28;20055;-58
2021/04/03 06:04:01;;;;;;;12.43;5.27;;;15.20;55.60;;;;;;4165458;28;20021;-57
2021/04/03 06:06:04;;;;;;;10.93;5.07;;;15.20;55.60;;;;;;4165481;28;20461;-57
2021/04/03 06:08:05;;;;;;;10.40;4.73;;;15.30;55.60;;;;;;4165304;28;20025;-57
2021/04/03 06:10:07;;;;;;;13.77;5.07;;;15.20;55.60;;;;;;4164235;28;20021;-57
2021/04/03 06:12:08;;;;;;;12.73;4.60;;;15.20;55.60;;;;;;4165266;28;20390;-57
2021/04/03 06:14:09;;;;;;;10.23;4.90;;;15.20;55.60;;;;;;4165413;28;20040;-57
2021/04/03 06:16:27;;;;;;;13.97;4.57;;;15.20;55.70;;;;;;4165363;28;20025;-57
2021/04/03 06:18:27;;;;;;;16.13;4.90;;;15.20;55.70;;;;;;4165352;28;20052;-58
2021/04/03 06:20:37;;;;;;;11.27;4.57;;;15.20;55.70;;;;;;4163818;28;20045;-57
2021/04/03 06:22:46;;;;;;;12.27;4.67;;;15.20;55.70;;;;;;4165296;28;20033;-57
2021/04/03 06:24:47;;;;;;;11.40;4.90;;;15.20;55.70;;;;;;4180599;28;20477;-56
2021/04/03 06:26:59;;;;;;;12.50;4.73;;;15.20;55.70;;;;;;4165154;28;20035;-56
2021/04/03 06:29:20;;;;;;;9.37;4.23;;;15.20;55.70;;;;;;4163711;28;20366;-57
2021/04/03 06:31:22;;;;;;;10.07;4.27;;;15.20;55.70;;;;;;4165092;28;20029;-57
2021/04/03 06:33:23;;;;;;;11.67;4.67;;;15.20;55.80;;;;;;4163806;28;20025;-57
2021/04/03 06:35:24;;;;;;;11.40;4.77;;;15.20;55.70;;;;;;4164966;28;20036;-57
2021/04/03 06:37:30;;;;;;;13.20;4.67;;;15.20;55.80;;;;;;4163429;28;20092;-56
2021/04/03 06:39:50;;;;;;;12.10;5.03;;;15.20;55.80;;;;;;4164951;28;20063;-56
2021/04/03 06:41:51;;;;;;;11.97;4.20;;;15.20;55.80;;;;;;4180232;28;20017;-57
2021/04/03 06:44:03;;;;;;;10.87;4.63;;;15.20;55.90;;;;;;4163879;28;20029;-56
2021/04/03 06:46:23;;;;;;;11.53;4.47;;;15.20;55.90;;;;;;4163557;28;20029;-57
2021/04/03 06:48:24;;;;;;;12.57;4.93;;;15.20;55.90;;;;;;4164944;28;20143;-57
2021/04/03 06:50:27;;;;;;;12.37;4.20;;;15.20;56.00;;;;;;4180120;28;20064;-58
2021/04/03 06:52:28;;;;;;;10.03;4.43;;;15.20;55.90;;;;;;4164884;28;20025;-57
2021/04/03 06:54:29;;;;;;;12.63;4.23;;;15.20;55.90;;;;;;4164660;28;20036;-57
2021/04/03 06:56:33;;;;;;;9.63;4.33;;;15.20;55.90;;;;;;4163547;28;20092;-57
2021/04/03 06:58:35;;;;;;;10.38;4.95;;;15.20;55.90;;;;;;4164708;28;20371;-57
2021/04/03 07:00:37;;;;;;;11.20;4.43;;;15.20;56.00;;;;;;4164700;28;20025;-57
2021/04/03 07:02:56;;;;;;;11.73;4.67;;;15.20;55.90;;;;;;4164829;28;20776;-57
2021/04/03 07:04:59;;;;;;;12.27;3.73;;;15.20;56.00;;;;;;4138650;28;20049;-55
2021/04/03 07:07:03;;;;;;;9.93;4.23;;;15.20;56.00;;;;;;4163360;28;20071;-57
2021/04/03 07:09:05;;;;;;;10.23;4.30;;;15.20;56.00;;;;;;4164549;28;20104;-58
2021/04/03 07:11:08;;;;;;;12.07;4.10;;;15.20;56.00;;;;;;4164730;28;20025;-57
2021/04/03 07:13:12;;;;;;;12.63;4.50;;;15.20;56.00;;;;;;4165711;28;20422;-57
2021/04/03 07:15:13;;;;;;;10.23;4.95;;;15.20;56.00;;;;;;4168241;28;20027;-57
2021/04/03 07:17:16;;;;;;;13.93;4.53;;;15.20;55.90;;;;;;4167982;28;20087;-57
2021/04/03 07:19:18;;;;;;;14.67;5.07;;;15.20;55.90;;;;;;4183302;28;20025;-57
2021/04/03 07:21:19;;;;;;;11.50;4.17;;;15.20;56.00;;;;;;4167904;28;20037;-56
2021/04/03 07:23:20;;;;;;;8.80;4.27;;;15.20;56.00;;;;;;4167824;28;20056;-57
2021/04/03 07:25:24;;;;;;;10.43;3.90;;;15.20;56.00;;;;;;4167923;28;20029;-57
2021/04/03 07:27:25;;;;;;;16.67;4.23;;;15.20;56.10;;;;;;4166616;28;20029;-57
2021/04/03 07:29:47;;;;;;;9.43;4.50;;;15.20;56.00;;;;;;4167833;28;20385;-57
2021/04/03 07:31:48;;;;;;;10.50;4.60;;;15.20;56.00;;;;;;4167776;28;20112;-56
2021/04/03 07:33:49;;;;;;;13.30;4.27;;;15.20;56.70;;;;;;4166517;28;20029;-57
2021/04/03 07:35:56;;;;;;;9.80;3.90;;;15.20;56.10;;;;;;4167436;28;20045;-57
2021/04/03 07:38:07;;;;;;;7.87;3.70;;;15.20;56.10;;;;;;4166485;28;20430;-57
2021/04/03 07:40:13;;;;;;;9.83;4.00;;;15.20;56.10;;;;;;4167732;28;20794;-57
2021/04/03 07:42:36;;;;;;;7.73;3.47;;;15.20;56.00;;;;;;4167745;28;20064;-57
2021/04/03 07:44:38;;;;;;;10.00;4.20;;;15.20;55.80;;;;;;4167725;28;20028;-56
2021/04/03 07:46:41;;;;;;;10.43;4.00;;;15.20;56.20;;;;;;4167626;28;20021;-57
2021/04/03 07:48:52;;;;;;;8.67;3.47;;;15.20;55.40;;;;;;4167467;28;20433;-56
2021/04/03 07:50:53;;;;;;;9.37;3.70;;;15.20;55.50;;;;;;4167575;28;20084;-57
2021/04/03 07:52:55;;;;;;;10.00;3.90;;;15.20;55.50;;;;;;4167270;28;20029;-57
2021/04/03 07:54:55;;;;;;;9.53;4.43;;;15.20;55.30;;;;;;4167491;28;20512;-57
2021/04/03 07:56:59;;;;;;;9.50;4.20;;;15.20;55.40;;;;;;4167240;28;20080;-57
2021/04/03 07:59:00;;;;;;;10.53;3.80;;;15.20;55.40;;;;;;4167288;28;20107;-57
2021/04/03 08:01:04;;;;;;;8.93;3.63;;;15.20;55.40;;;;;;4167191;28;20033;-57
2021/04/03 08:03:06;;;;;;;7.73;3.53;;;15.20;55.20;;;;;;4167242;28;20112;-57
2021/04/03 08:05:10;;;;;;;6.43;3.43;;;15.20;55.50;;;;;;4167245;28;20266;-57
2021/04/03 08:07:12;;;;;;;6.75;3.47;;;15.20;55.40;;;;;;4167321;28;20108;-56
2021/04/03 08:09:15;;;;;;;8.77;3.40;;;15.20;55.40;;;;;;4167269;28;20394;-56
2021/04/03 08:11:17;;;;;;;10.33;3.77;;;15.30;55.60;;;;;;4166010;28;20099;-57
2021/04/03 08:13:18;;;;;;;7.30;3.47;;;15.30;55.50;;;;;;4167181;28;20390;-57
2021/04/03 08:15:21;;;;;;;9.27;3.60;;;15.30;55.70;;;;;;4182270;28;20029;-56
2021/04/03 08:17:23;;;;;;;9.57;3.83;;;15.30;56.30;;;;;;4165852;28;20155;-57
2021/04/03 08:19:25;;;;;;;6.93;3.63;;;15.30;55.50;;;;;;4167114;28;20099;-57
2021/04/03 08:21:28;;;;;;;9.73;4.00;;;15.30;55.60;;;;;;4182320;28;20487;-57
2021/04/03 08:23:38;;;;;;;9.17;3.40;;;15.30;55.50;;;;;;4166960;28;20053;-57
2021/04/03 08:25:53;;;;;;;10.20;3.43;;;15.30;55.50;;;;;;4163621;28;20484;-56
2021/04/03 08:27:53;;;;;;;6.57;3.67;;;15.30;55.40;;;;;;4171891;28;20028;-57
2021/04/03 08:29:57;;;;;;;12.83;4.10;;;15.40;55.50;;;;;;4164312;28;20029;-57
2021/04/03 08:31:59;;;;;;;10.60;3.33;;;15.30;55.50;;;;;;4164335;28;20041;-55
2021/04/03 08:34:05;;;;;;;9.73;3.67;;;15.40;55.50;;;;;;4165649;28;20017;-57
2021/04/03 08:36:19;;;;;;;8.90;3.70;;;15.40;55.30;;;;;;4162590;28;20094;-58
2021/04/03 08:38:25;;;;;;;8.57;3.88;;;15.40;55.40;;;;;;4163952;28;20032;-57
2021/04/03 08:40:30;;;;;;;7.37;3.37;;;15.40;55.40;;;;;;4164282;28;20526;-56
2021/04/03 08:42:33;;;;;;;7.73;3.80;;;15.40;55.40;;;;;;4162610;28;20074;-57
2021/04/03 08:44:34;;;;;;;9.30;3.77;;;15.40;55.30;;;;;;4162041;28;20045;-56
2021/04/03 08:46:34;;;;;;;10.60;3.77;;;15.40;55.20;;;;;;4165345;28;20021;-57
2021/04/03 08:48:37;;;;;;;7.77;3.37;;;15.40;55.20;;;;;;4162833;28;20478;-57
2021/04/03 08:50:44;;;;;;;9.43;3.10;;;15.50;55.60;;;;;;4178366;28;20033;-55
2021/04/03 08:52:45;;;;;;;10.63;3.40;;;15.50;55.50;;;;;;4180299;28;20025;-56
2021/04/03 08:54:46;;;;;;;8.40;3.10;;;15.50;55.40;;;;;;4161143;28;20065;-56
2021/04/03 08:56:47;;;;;;;6.33;3.33;;;15.50;55.40;;;;;;4164050;28;20049;-55
2021/04/03 08:58:48;;;;;;;8.93;3.73;;;15.50;55.30;;;;;;4164124;28;20046;-56
2021/04/03 09:00:50;;;;;;;7.10;3.07;;;15.50;55.10;;;;;;4163187;28;20204;-56
2021/04/03 09:02:53;;;;;;;7.37;3.90;;;15.50;55.00;;;;;;4163162;28;20022;-56
2021/04/03 09:04:54;;;;;;;8.07;3.63;;;15.50;55.00;;;;;;4163532;28;20029;-56
2021/04/03 09:06:55;;;;;;;11.67;3.03;;;15.50;55.20;;;;;;4165412;28;20049;-56
2021/04/03 09:09:20;;;;;;;8.10;3.57;;;15.60;55.40;;;;;;4164142;28;20034;-55
2021/04/03 09:11:20;;;;;;;6.87;3.07;;;15.60;55.30;;;;;;4158348;28;20033;-56
2021/04/03 09:13:21;;;;;;;8.57;3.03;;;15.60;55.30;;;;;;4162099;28;20449;-55
2021/04/03 09:15:30;;;;;;;9.97;3.67;;;15.60;55.60;;;;;;4164136;28;20044;-56
2021/04/03 09:17:31;;;;;;;9.43;3.10;;;15.60;55.00;;;;;;4164191;28;20033;-55
2021/04/03 09:19:36;;;;;;;8.30;3.13;;;15.60;55.00;;;;;;4165797;28;20037;-56
2021/04/03 09:21:43;;;;;;;8.00;3.23;;;15.60;54.90;;;;;;4163143;28;20025;-55
2021/04/03 09:23:44;;;;;;;8.73;3.47;;;15.70;55.10;;;;;;4162565;28;20021;-56
2021/04/03 09:25:46;;;;;;;10.63;3.60;;;15.70;54.90;;;;;;4162378;28;20049;-55
2021/04/03 09:28:03;;;;;;;11.37;3.93;;;15.70;54.90;;;;;;4164366;28;20022;-55
2021/04/03 09:30:07;;;;;;;8.10;3.50;;;15.70;54.80;;;;;;4155811;28;20061;-57
2021/04/03 09:32:09;;;;;;;6.90;3.20;;;15.70;54.70;;;;;;4149652;28;20026;-57
2021/04/03 09:34:14;;;;;;;9.47;3.30;;;15.70;54.80;;;;;;4149455;28;20470;-57
2021/04/03 09:36:18;;;;;;;8.15;3.33;;;15.70;54.70;;;;;;4149065;28;20475;-56
2021/04/03 09:38:30;;;;;;;7.83;3.67;;;15.70;55.00;;;;;;4148970;28;20436;-57
2021/04/03 09:40:35;;;;;;;5.80;3.03;;;15.70;55.00;;;;;;4149280;28;20018;-56
2021/04/03 09:42:36;;;;;;;;;;;15.80;55.20;;;;;;4148324;28;20438;-57
2021/04/03 09:44:37;;;;;;;14.57;3.73;;;15.80;54.70;;;;;;4160639;28;19995;-55
2021/04/03 09:46:38;;;;;;;7.23;3.10;;;15.80;54.70;;;;;;4147505;28;20109;-55
2021/04/03 09:48:40;;;;;;;12.03;4.03;;;15.80;54.70;;;;;;4164062;28;20029;-56
2021/04/03 09:50:41;;;;;;;7.00;3.07;;;15.80;54.80;;;;;;4163092;28;20418;-56
2021/04/03 09:52:42;;;;;;;5.83;2.70;;;15.80;54.90;;;;;;4161214;28;20025;-57
2021/04/03 09:54:45;;;;;;;8.47;3.07;;;15.80;54.90;;;;;;4162354;28;20029;-56
2021/04/03 09:56:47;;;;;;;13.37;3.90;;;15.80;55.30;;;;;;4162653;28;20044;-56
2021/04/03 09:58:48;;;;;;;6.70;2.97;;;15.80;55.30;;;;;;4161247;28;20050;-55
2021/04/03 10:00:48;;;;;;;10.87;3.83;;;15.90;55.40;;;;;;4163077;28;20026;-56
2021/04/03 10:02:49;;;;;;;7.10;2.93;;;15.90;55.60;;;;;;4164498;28;20037;-57
2021/04/03 10:04:50;;;;;;;6.97;3.03;;;15.90;55.50;;;;;;4161211;28;20043;-56
2021/04/03 10:06:51;;;;;;;8.87;3.47;;;15.90;55.70;;;;;;4158492;28;20033;-56
2021/04/03 10:08:52;;;;;;;9.10;3.13;;;15.90;56.30;;;;;;4152692;28;20049;-57
2021/04/03 10:10:53;;;;;;;10.87;3.10;;;16.00;57.10;;;;;;4165376;28;20112;-57
2021/04/03 10:12:54;;;;;;;9.47;3.30;;;16.00;56.50;;;;;;4180720;28;20021;-57
2021/04/03 10:14:54;;;;;;;9.13;3.40;;;16.00;56.20;;;;;;4165362;28;20040;-57
2021/04/03 10:16:55;;;;;;;8.27;3.03;;;16.00;56.00;;;;;;4165124;28;20449;-57
2021/04/03 10:18:56;;;;;;;12.63;3.00;;;16.00;56.00;;;;;;4165282;28;20470;-57
2021/04/03 10:20:58;;;;;;;10.63;3.63;;;16.10;55.80;;;;;;4162122;28;20025;-55
2021/04/03 10:22:58;;;;;;;11.27;3.00;;;16.10;56.10;;;;;;4161429;28;20036;-56
2021/04/03 10:25:00;;;;;;;16.77;3.43;;;16.10;56.00;;;;;;4161737;28;20026;-56
2021/04/03 10:27:00;;;;;;;7.63;2.93;;;16.10;55.90;;;;;;4161923;28;20022;-56
2021/04/03 10:29:01;;;;;;;10.30;3.40;;;16.10;56.00;;;;;;4162127;28;20029;-56
2021/04/03 10:31:02;;;;;;;7.27;3.00;;;16.10;56.00;;;;;;4162642;28;20389;-56
2021/04/03 10:33:03;;;;;;;8.93;3.27;;;16.10;55.90;;;;;;4160220;28;20453;-57
2021/04/03 10:35:05;;;;;;;14.60;3.03;;;16.20;56.10;;;;;;4164482;28;20033;-56
2021/04/03 10:37:06;;;;;;;13.20;3.10;;;16.20;56.10;;;;;;4164557;28;20032;-57